Time;durP1;ratioP1;P1;durP2;ratioP2;P2;SDS_P1;SDS_P2;PMS_P1;PMS_P2;Temp;Humidity;BMP_temperature;BMP_pressure;BME280_temperature;BME280_humidity;BME280_pressure;Samples;Min_cycle;Max_cycle;Signal;HPM_P1;HPM_P2
2022/01/04 00:02:03;;;;;;;19.50;7.38;;;9.00;99.90;;;;;;5029131;28;20049;-67
2022/01/04 00:04:28;;;;;;;25.58;7.28;;;9.00;99.90;;;;;;5029706;28;20509;-67
2022/01/04 00:06:55;;;;;;;20.88;6.85;;;9.00;99.90;;;;;;5024898;28;20131;-66
2022/01/04 00:09:21;;;;;;;19.23;6.55;;;9.00;99.90;;;;;;5030790;28;20049;-67
2022/01/04 00:14:21;;;;;;;24.15;8.48;;;9.00;99.90;;;;;;5030768;28;20128;-68
2022/01/04 00:16:50;;;;;;;23.15;7.43;;;9.00;99.90;;;;;;5030630;28;20131;-67
2022/01/04 00:19:17;;;;;;;18.60;9.15;;;9.00;99.90;;;;;;5030407;28;20092;-68
2022/01/04 00:21:43;;;;;;;25.08;8.60;;;9.00;99.90;;;;;;5030591;28;20064;-69
2022/01/04 00:24:09;;;;;;;25.45;7.60;;;9.00;99.90;;;;;;5030683;28;20033;-67
2022/01/04 00:26:34;;;;;;;22.42;8.40;;;9.10;99.90;;;;;;5030795;28;20643;-67
2022/01/04 00:29:00;;;;;;;29.25;7.50;;;9.10;99.90;;;;;;5030750;28;20114;-67
2022/01/04 00:31:26;;;;;;;19.35;7.70;;;9.10;99.90;;;;;;5030450;28;20425;-67
2022/01/04 00:33:51;;;;;;;21.80;7.35;;;9.10;99.90;;;;;;5030431;28;20089;-67
2022/01/04 00:36:17;;;;;;;18.70;7.85;;;9.10;99.90;;;;;;5030446;28;20041;-67
2022/01/04 00:38:43;;;;;;;26.75;8.57;;;9.00;99.90;;;;;;5029440;28;20029;-67
2022/01/04 00:41:08;;;;;;;19.20;8.45;;;9.00;99.90;;;;;;5029447;28;20044;-67
2022/01/04 00:43:34;;;;;;;24.17;8.52;;;9.10;99.90;;;;;;5030478;28;20037;-67
2022/01/04 00:46:00;;;;;;;21.42;8.95;;;9.10;99.90;;;;;;5032008;28;20042;-66
2022/01/04 00:50:53;;;;;;;21.45;7.78;;;9.10;99.90;;;;;;5034317;28;20444;-67
2022/01/04 00:53:19;;;;;;;16.60;7.63;;;9.10;99.90;;;;;;5033872;28;20042;-66
2022/01/04 00:55:44;;;;;;;17.05;8.60;;;9.10;99.90;;;;;;5034059;28;20041;-67
2022/01/04 00:58:10;;;;;;;14.70;7.65;;;9.10;99.90;;;;;;5034226;28;20053;-67
2022/01/04 01:00:37;;;;;;;21.83;8.23;;;9.10;99.90;;;;;;5049506;28;20049;-67
2022/01/04 01:03:03;;;;;;;21.50;9.73;;;9.00;99.90;;;;;;5033946;28;20084;-66
2022/01/04 01:05:29;;;;;;;26.58;9.25;;;9.10;99.90;;;;;;5033972;28;20041;-67
2022/01/04 01:07:56;;;;;;;19.52;8.52;;;9.00;99.90;;;;;;5032587;28;20049;-67
2022/01/04 01:13:09;;;;;;;17.67;8.45;;;9.00;99.90;;;;;;5033716;28;20049;-67
2022/01/04 01:15:37;;;;;;;24.88;8.57;;;9.00;99.90;;;;;;5033841;28;20057;-67
2022/01/04 01:18:02;;;;;;;21.10;9.30;;;9.00;99.90;;;;;;5033159;28;20065;-67
2022/01/04 01:20:28;;;;;;;27.58;8.50;;;9.00;99.90;;;;;;5033688;28;20065;-67
2022/01/04 01:22:54;;;;;;;21.33;8.10;;;9.00;99.90;;;;;;5015653;28;20095;-69
2022/01/04 01:25:20;;;;;;;25.35;8.02;;;9.00;99.90;;;;;;5033805;28;20726;-67
2022/01/04 01:27:46;;;;;;;17.13;8.10;;;9.00;99.90;;;;;;5032200;28;20049;-67
2022/01/04 01:30:12;;;;;;;21.08;8.68;;;9.00;99.90;;;;;;5033469;28;20036;-67
2022/01/04 01:32:38;;;;;;;21.10;9.07;;;9.00;99.90;;;;;;5031936;28;20037;-68
2022/01/04 01:35:05;;;;;;;17.60;7.90;;;9.00;99.90;;;;;;5033591;28;20510;-67
2022/01/04 01:37:31;;;;;;;18.83;8.32;;;9.00;99.90;;;;;;5033498;28;20107;-68
2022/01/04 01:39:56;;;;;;;19.92;8.27;;;9.00;99.90;;;;;;5033570;28;20072;-67
2022/01/04 01:42:23;;;;;;;18.55;7.47;;;8.90;99.90;;;;;;5015256;28;20041;-67
2022/01/04 01:44:49;;;;;;;19.85;8.13;;;9.00;99.90;;;;;;5033198;28;20047;-67
2022/01/04 01:47:14;;;;;;;25.30;7.43;;;9.00;99.90;;;;;;5033196;28;20041;-67
2022/01/04 01:49:40;;;;;;;24.50;8.75;;;9.00;99.90;;;;;;5033348;28;20516;-68
2022/01/04 01:52:06;;;;;;;17.95;6.95;;;8.90;99.90;;;;;;5033009;28;20121;-67
2022/01/04 01:54:31;;;;;;;18.58;7.38;;;8.80;99.90;;;;;;5032946;28;20057;-67
2022/01/04 01:56:57;;;;;;;29.45;8.00;;;8.90;99.90;;;;;;5031958;28;20029;-67
2022/01/04 01:59:23;;;;;;;16.77;7.82;;;8.90;99.90;;;;;;5032923;28;20056;-69
2022/01/04 02:01:48;;;;;;;25.08;8.38;;;8.90;99.90;;;;;;5032521;28;20526;-69
2022/01/04 02:04:14;;;;;;;24.85;8.05;;;8.80;99.90;;;;;;5032853;28;20409;-69
2022/01/04 02:06:40;;;;;;;21.83;7.70;;;8.80;99.90;;;;;;5031590;28;20052;-67
2022/01/04 02:09:05;;;;;;;21.42;8.45;;;8.80;99.90;;;;;;5032923;28;20073;-67
2022/01/04 02:11:32;;;;;;;23.70;7.97;;;8.80;99.90;;;;;;5031299;28;20471;-68
2022/01/04 02:13:59;;;;;;;17.23;8.13;;;8.80;99.90;;;;;;5032558;28;20046;-68
2022/01/04 02:16:26;;;;;;;21.08;8.32;;;8.80;99.90;;;;;;5032548;28;20137;-68
2022/01/04 02:18:52;;;;;;;20.20;9.55;;;8.80;99.90;;;;;;5032329;28;20073;-68
2022/01/04 02:21:18;;;;;;;25.98;8.95;;;8.80;99.90;;;;;;5032585;28;20444;-69
2022/01/04 02:23:43;;;;;;;24.55;9.70;;;8.80;99.90;;;;;;5032372;28;20041;-69
2022/01/04 02:26:09;;;;;;;21.65;8.88;;;8.80;99.90;;;;;;5032496;28;20069;-70
2022/01/04 02:28:35;;;;;;;23.95;10.25;;;8.80;99.90;;;;;;5047666;28;20426;-66
2022/01/04 02:31:00;;;;;;;29.15;9.27;;;8.80;99.90;;;;;;5031353;28;20048;-67
2022/01/04 02:33:26;;;;;;;23.48;9.63;;;8.80;99.90;;;;;;5030836;28;20037;-67
2022/01/04 02:35:52;;;;;;;21.58;8.75;;;8.80;99.90;;;;;;5032328;28;20045;-67
2022/01/04 02:38:17;;;;;;;27.70;10.20;;;8.80;99.90;;;;;;5032205;28;20060;-67
2022/01/04 02:40:43;;;;;;;19.42;9.02;;;8.70;99.90;;;;;;5032097;28;20033;-68
2022/01/04 02:43:09;;;;;;;23.90;9.57;;;8.80;99.90;;;;;;5032034;28;20041;-67
2022/01/04 02:45:34;;;;;;;27.23;11.30;;;8.70;99.90;;;;;;5032301;28;20049;-67
2022/01/04 02:48:00;;;;;;;19.58;9.15;;;8.70;99.90;;;;;;5032049;28;20438;-67
2022/01/04 02:50:26;;;;;;;20.65;9.55;;;8.70;99.90;;;;;;5032121;28;20049;-67
2022/01/04 02:52:52;;;;;;;21.83;9.90;;;8.70;99.90;;;;;;5014002;28;20045;-67
2022/01/04 02:55:18;;;;;;;26.83;9.85;;;8.70;99.90;;;;;;5031911;28;20040;-67
2022/01/04 02:57:44;;;;;;;30.08;10.27;;;8.70;99.90;;;;;;5032298;28;20027;-69
2022/01/04 03:00:13;;;;;;;23.30;11.20;;;8.70;99.90;;;;;;5032266;28;20075;-68
2022/01/04 03:02:39;;;;;;;24.83;10.05;;;8.70;99.90;;;;;;5031470;28;20140;-67
2022/01/04 03:05:05;;;;;;;25.13;11.13;;;8.70;99.90;;;;;;5030548;28;20041;-67
2022/01/04 03:07:32;;;;;;;21.65;10.57;;;8.60;99.90;;;;;;5031643;28;20041;-67
2022/01/04 03:09:58;;;;;;;28.67;11.35;;;8.60;99.90;;;;;;5031614;28;20049;-67
2022/01/04 03:12:23;;;;;;;23.90;11.38;;;8.60;99.90;;;;;;5030056;28;20045;-67
2022/01/04 03:14:49;;;;;;;22.75;10.55;;;8.60;99.90;;;;;;5031749;28;20076;-67
2022/01/04 03:17:15;;;;;;;28.95;11.15;;;8.70;99.90;;;;;;5031729;28;20072;-67
2022/01/04 03:19:40;;;;;;;29.48;12.10;;;8.70;99.90;;;;;;5029794;28;20155;-69
2022/01/04 03:22:06;;;;;;;26.15;11.48;;;8.60;99.90;;;;;;5030965;28;20037;-68
2022/01/04 03:24:32;;;;;;;24.92;11.68;;;8.60;99.90;;;;;;5031451;28;20581;-67
2022/01/04 03:26:57;;;;;;;24.88;10.77;;;8.60;99.90;;;;;;5029987;28;20047;-68
2022/01/04 03:29:24;;;;;;;26.85;12.23;;;8.60;99.90;;;;;;5031493;28;20140;-68
2022/01/04 03:31:50;;;;;;;30.08;12.05;;;8.70;99.90;;;;;;5031012;28;20067;-68
2022/01/04 03:34:17;;;;;;;34.97;12.48;;;8.60;99.90;;;;;;5030192;28;20528;-68
2022/01/04 03:36:43;;;;;;;30.17;12.98;;;8.70;99.90;;;;;;5029809;28;20405;-68
2022/01/04 03:39:10;;;;;;;35.47;13.85;;;8.70;99.90;;;;;;5031225;28;20037;-68
2022/01/04 03:41:39;;;;;;;30.92;13.02;;;8.70;99.90;;;;;;5029566;28;20124;-68
2022/01/04 03:44:06;;;;;;;35.05;14.93;;;8.70;99.90;;;;;;5030941;28;20746;-68
2022/01/04 03:46:32;;;;;;;26.40;13.50;;;8.60;99.90;;;;;;5031178;28;20044;-69
2022/01/04 03:48:58;;;;;;;31.88;13.80;;;8.60;99.90;;;;;;5031068;28;20033;-68
2022/01/04 03:51:23;;;;;;;36.05;14.98;;;8.60;99.90;;;;;;5030939;28;20665;-68
2022/01/04 03:53:49;;;;;;;29.83;13.15;;;8.70;99.90;;;;;;5029709;28;20095;-69
2022/01/04 03:56:15;;;;;;;24.73;13.50;;;8.70;99.90;;;;;;5031163;28;20046;-68
2022/01/04 03:58:40;;;;;;;32.38;14.35;;;8.60;99.90;;;;;;5031123;28;20041;-68
2022/01/04 04:01:06;;;;;;;32.50;15.13;;;8.60;99.90;;;;;;5031109;28;20037;-68
2022/01/04 04:03:32;;;;;;;32.83;14.10;;;8.60;99.90;;;;;;5030671;28;20136;-68
2022/01/04 04:05:58;;;;;;;36.05;14.55;;;8.60;99.90;;;;;;5030820;28;20052;-68
2022/01/04 04:08:24;;;;;;;34.30;15.63;;;8.70;99.90;;;;;;5030994;28;20133;-69
2022/01/04 04:10:50;;;;;;;38.42;17.05;;;8.60;99.90;;;;;;5030666;28;20073;-68
2022/01/04 04:13:15;;;;;;;32.60;15.90;;;8.70;99.90;;;;;;5030742;28;20056;-70
2022/01/04 04:15:41;;;;;;;33.05;15.02;;;8.70;99.90;;;;;;5029770;28;20128;-69
2022/01/04 04:18:09;;;;;;;33.08;15.30;;;8.60;99.90;;;;;;5029286;28;20033;-68
2022/01/04 04:20:36;;;;;;;33.60;15.48;;;8.60;99.90;;;;;;5033058;28;20037;-68
2022/01/04 04:23:02;;;;;;;30.52;14.85;;;8.70;99.90;;;;;;5034650;28;20129;-69
2022/01/04 04:25:27;;;;;;;29.13;15.57;;;8.70;99.90;;;;;;5033454;28;20497;-70
2022/01/04 04:27:53;;;;;;;32.70;16.25;;;8.60;99.90;;;;;;5034602;28;20179;-68
2022/01/04 04:30:18;;;;;;;30.27;15.85;;;8.70;99.90;;;;;;5034488;28;20152;-68
2022/01/04 04:32:44;;;;;;;39.05;15.48;;;8.70;99.90;;;;;;5034385;28;20037;-69
2022/01/04 04:35:10;;;;;;;33.95;15.70;;;8.60;99.90;;;;;;5034714;28;20045;-69
2022/01/04 04:37:35;;;;;;;34.00;16.33;;;8.70;99.90;;;;;;5034726;28;20172;-69
2022/01/04 04:40:02;;;;;;;34.38;17.10;;;8.60;99.90;;;;;;5034579;28;20037;-68
2022/01/04 04:42:27;;;;;;;29.67;15.60;;;8.70;99.90;;;;;;5032828;28;20113;-68
2022/01/04 04:44:53;;;;;;;30.75;15.02;;;8.60;99.90;;;;;;5034462;28;20183;-68
2022/01/04 04:47:18;;;;;;;30.38;15.43;;;8.70;99.90;;;;;;5034417;28;20042;-69
2022/01/04 04:49:44;;;;;;;31.00;14.98;;;8.70;99.90;;;;;;5034575;28;20180;-69
2022/01/04 04:52:10;;;;;;;32.42;14.95;;;8.70;99.90;;;;;;5033950;28;20051;-68
2022/01/04 04:54:35;;;;;;;29.77;15.82;;;8.70;99.90;;;;;;5034259;28;20049;-69
2022/01/04 04:57:01;;;;;;;34.50;15.07;;;8.70;99.90;;;;;;5034376;28;20033;-68
2022/01/04 04:59:27;;;;;;;31.55;14.25;;;8.60;99.90;;;;;;5016616;28;20045;-68
2022/01/04 05:01:52;;;;;;;31.10;15.07;;;8.70;99.90;;;;;;5034012;28;20033;-69
2022/01/04 05:04:18;;;;;;;29.73;15.70;;;8.70;99.90;;;;;;5034245;28;20034;-69
2022/01/04 05:06:44;;;;;;;28.20;14.00;;;8.70;99.90;;;;;;5034028;28;20045;-68
2022/01/04 05:09:09;;;;;;;28.45;15.02;;;8.70;99.90;;;;;;5032793;28;20041;-68
2022/01/04 05:11:35;;;;;;;28.80;14.70;;;8.70;99.90;;;;;;5033696;28;20478;-69
2022/01/04 05:14:00;;;;;;;25.88;15.75;;;8.70;99.90;;;;;;5033706;28;20045;-69
2022/01/04 05:16:26;;;;;;;34.45;15.35;;;8.70;99.90;;;;;;5033663;28;20096;-68
2022/01/04 05:18:52;;;;;;;28.30;13.68;;;8.70;99.90;;;;;;5033478;28;20510;-68
2022/01/04 05:21:17;;;;;;;24.52;14.48;;;8.80;99.90;;;;;;5033777;28;20080;-69
2022/01/04 05:23:43;;;;;;;24.92;13.75;;;8.80;99.90;;;;;;5033418;28;20067;-69
2022/01/04 05:26:08;;;;;;;29.52;13.73;;;8.70;99.90;;;;;;5033591;28;20056;-68
2022/01/04 05:28:34;;;;;;;27.95;14.10;;;8.80;99.90;;;;;;5033594;28;20041;-69
2022/01/04 05:31:00;;;;;;;23.67;12.60;;;8.80;99.90;;;;;;5033498;28;20619;-68
2022/01/04 05:33:25;;;;;;;23.33;13.57;;;8.70;99.90;;;;;;5033570;28;20041;-69
2022/01/04 05:35:53;;;;;;;27.23;14.65;;;8.80;99.90;;;;;;5033629;28;20056;-70
2022/01/04 05:38:19;;;;;;;29.67;14.85;;;8.80;99.90;;;;;;5015900;28;20030;-68
2022/01/04 05:40:44;;;;;;;28.02;13.75;;;8.80;99.90;;;;;;5033327;28;20741;-68
2022/01/04 05:43:10;;;;;;;27.25;14.18;;;8.80;99.90;;;;;;5033323;28;20545;-68
2022/01/04 05:45:36;;;;;;;23.52;14.40;;;8.70;99.90;;;;;;5033484;28;20041;-69
2022/01/04 05:48:01;;;;;;;35.70;15.57;;;8.60;99.90;;;;;;5033423;28;20077;-69
2022/01/04 05:50:29;;;;;;;29.02;15.57;;;8.70;99.90;;;;;;5033268;28;20137;-68
2022/01/04 05:52:55;;;;;;;30.40;16.33;;;8.70;99.90;;;;;;5032947;28;20096;-68
2022/01/04 05:55:20;;;;;;;28.10;15.02;;;8.70;99.90;;;;;;5031622;28;20080;-69
2022/01/04 05:57:46;;;;;;;31.98;16.10;;;8.70;99.90;;;;;;5033267;28;20112;-68
2022/01/04 06:00:12;;;;;;;31.25;15.57;;;8.80;99.90;;;;;;5033112;28;20485;-69
2022/01/04 06:02:38;;;;;;;24.20;14.88;;;8.70;99.90;;;;;;5032697;28;20555;-68
2022/01/04 06:05:04;;;;;;;32.33;16.20;;;8.70;99.90;;;;;;5033064;28;20049;-68
2022/01/04 06:07:29;;;;;;;26.13;15.38;;;8.80;99.90;;;;;;5031575;28;20045;-68
2022/01/04 06:09:55;;;;;;;30.33;15.02;;;8.70;99.90;;;;;;5032706;28;20106;-69
2022/01/04 06:15:07;;;;;;;26.77;14.90;;;8.70;99.90;;;;;;5032873;28;20046;-69
2022/01/04 06:17:39;;;;;;;30.38;15.85;;;8.70;99.90;;;;;;5031648;28;20034;-68
2022/01/04 06:20:06;;;;;;;33.22;14.95;;;8.70;99.90;;;;;;5032097;28;20433;-69
2022/01/04 06:22:32;;;;;;;27.42;14.65;;;8.70;99.90;;;;;;5032139;28;20037;-69
2022/01/04 06:24:58;;;;;;;27.33;15.10;;;8.60;99.90;;;;;;5032738;28;20502;-68
2022/01/04 06:27:24;;;;;;;27.38;13.98;;;8.60;99.90;;;;;;5032411;28;20037;-68
2022/01/04 06:29:50;;;;;;;24.63;15.70;;;8.60;99.90;;;;;;5032619;28;20503;-68
2022/01/04 06:32:16;;;;;;;36.03;15.52;;;8.60;99.90;;;;;;5032159;28;20064;-68
2022/01/04 06:34:43;;;;;;;27.15;14.70;;;8.60;99.90;;;;;;5032357;28;20113;-69
2022/01/04 06:37:10;;;;;;;31.27;16.17;;;8.70;99.90;;;;;;5031129;28;20042;-68
2022/01/04 06:39:36;;;;;;;26.45;14.95;;;8.60;99.90;;;;;;5032461;28;20041;-68
2022/01/04 06:42:02;;;;;;;27.50;15.80;;;8.60;99.90;;;;;;5031702;28;20044;-69
2022/01/04 06:44:28;;;;;;;29.02;15.40;;;8.60;99.90;;;;;;5030952;28;20045;-69
2022/01/04 06:46:53;;;;;;;29.20;16.00;;;8.60;99.90;;;;;;5032866;28;20067;-69
2022/01/04 06:49:20;;;;;;;28.67;15.00;;;8.60;99.90;;;;;;5032386;28;20099;-68
2022/01/04 06:51:47;;;;;;;31.95;16.55;;;8.70;99.90;;;;;;5032042;28;20050;-69
2022/01/04 06:54:15;;;;;;;33.28;16.42;;;8.70;99.90;;;;;;5032495;28;20038;-69
2022/01/04 06:56:41;;;;;;;32.25;15.52;;;8.70;99.90;;;;;;5032369;28;20041;-69
2022/01/04 06:59:07;;;;;;;30.15;16.13;;;8.70;99.90;;;;;;5032081;28;20091;-71
2022/01/04 07:01:34;;;;;;;30.10;16.10;;;8.70;99.90;;;;;;5030459;28;20486;-69
2022/01/04 07:04:00;;;;;;;36.45;16.58;;;8.70;99.90;;;;;;5032299;28;20045;-69
2022/01/04 07:06:26;;;;;;;29.02;15.57;;;8.70;99.90;;;;;;5032108;28;20520;-68
2022/01/04 07:08:52;;;;;;;30.75;16.80;;;8.70;99.90;;;;;;5030502;28;20064;-68
2022/01/04 07:11:17;;;;;;;32.58;17.58;;;8.60;99.90;;;;;;5031655;28;20045;-68
2022/01/04 07:13:43;;;;;;;38.20;16.20;;;8.60;99.90;;;;;;5031364;28;20409;-69
2022/01/04 07:16:09;;;;;;;30.48;16.00;;;8.70;99.90;;;;;;5031446;28;20124;-68
2022/01/04 07:18:35;;;;;;;32.90;18.00;;;8.70;99.90;;;;;;5027802;28;20672;-68
2022/01/04 07:21:01;;;;;;;31.65;17.25;;;8.60;99.90;;;;;;5031438;28;20041;-67
2022/01/04 07:23:28;;;;;;;32.00;16.40;;;8.70;99.90;;;;;;5031119;28;20683;-68
2022/01/04 07:25:54;;;;;;;36.40;17.83;;;8.70;99.90;;;;;;5031428;28;20048;-69
2022/01/04 07:28:20;;;;;;;36.17;17.00;;;8.70;99.90;;;;;;5031128;28;20094;-69
2022/01/04 07:30:46;;;;;;;28.42;16.77;;;8.70;99.90;;;;;;5027862;28;20120;-68
2022/01/04 07:33:11;;;;;;;31.65;16.67;;;8.70;99.90;;;;;;5027427;28;20037;-70
2022/01/04 07:35:37;;;;;;;37.80;17.27;;;8.70;99.90;;;;;;5031286;28;20038;-68
2022/01/04 07:38:03;;;;;;;37.80;17.20;;;8.70;99.90;;;;;;5031243;28;20045;-69
2022/01/04 07:40:29;;;;;;;28.45;17.15;;;8.70;99.90;;;;;;5031171;28;20033;-69
2022/01/04 07:42:59;;;;;;;31.08;16.92;;;8.70;99.90;;;;;;5030727;28;20087;-68
2022/01/04 07:45:29;;;;;;;35.15;17.73;;;8.60;99.90;;;;;;5029876;28;20088;-68
2022/01/04 07:47:55;;;;;;;36.67;17.70;;;8.70;99.90;;;;;;5030386;28;20037;-69
2022/01/04 07:50:21;;;;;;;40.63;18.42;;;8.70;99.90;;;;;;5031013;28;20049;-69
2022/01/04 07:52:46;;;;;;;38.42;18.52;;;8.70;99.90;;;;;;5030818;28;20601;-68
2022/01/04 07:55:12;;;;;;;33.85;17.60;;;8.70;99.90;;;;;;5030167;28;20126;-69
2022/01/04 07:57:39;;;;;;;34.50;19.02;;;8.70;99.90;;;;;;5030792;28;20030;-68
2022/01/04 08:00:07;;;;;;;35.00;17.40;;;8.70;99.90;;;;;;5030959;28;20041;-69
2022/01/04 08:02:32;;;;;;;38.70;19.77;;;8.80;99.90;;;;;;5030465;28;20041;-72
2022/01/04 08:04:58;;;;;;;35.90;18.92;;;8.70;99.90;;;;;;5031267;28;20044;-71
2022/01/04 08:07:23;;;;;;;37.97;17.85;;;8.70;99.90;;;;;;5032104;28;20049;-70
2022/01/04 08:09:49;;;;;;;31.90;17.88;;;8.70;99.90;;;;;;5031481;28;20050;-69
2022/01/04 08:12:14;;;;;;;42.45;19.42;;;8.60;99.90;;;;;;5030478;28;20038;-69
2022/01/04 08:14:40;;;;;;;30.50;17.88;;;8.70;99.90;;;;;;5031147;28;20127;-71
2022/01/04 08:17:05;;;;;;;33.55;18.75;;;8.60;99.90;;;;;;5029054;28;20096;-70
2022/01/04 08:19:31;;;;;;;35.67;20.08;;;8.70;99.90;;;;;;5029879;28;20056;-69
2022/01/04 08:21:57;;;;;;;39.28;19.88;;;8.60;99.90;;;;;;5027112;28;20473;-69
2022/01/04 08:24:22;;;;;;;35.63;18.15;;;8.60;99.90;;;;;;5029780;28;20042;-70
2022/01/04 08:26:48;;;;;;;34.90;18.40;;;8.60;99.90;;;;;;5028601;28;20049;-69
2022/01/04 08:29:14;;;;;;;44.63;19.38;;;8.60;99.90;;;;;;5028910;28;20081;-70
2022/01/04 08:31:39;;;;;;;32.65;17.45;;;8.70;99.90;;;;;;5030456;28;20041;-70
2022/01/04 08:34:08;;;;;;;32.78;18.23;;;8.70;99.90;;;;;;5013401;28;20564;-70
2022/01/04 08:36:36;;;;;;;36.17;18.85;;;8.70;99.90;;;;;;5030749;28;20051;-69
2022/01/04 08:39:03;;;;;;;39.00;18.20;;;8.70;99.90;;;;;;5029372;28;20068;-69
2022/01/04 08:41:28;;;;;;;35.72;17.88;;;8.70;99.90;;;;;;5030508;28;20048;-69
2022/01/04 08:43:55;;;;;;;38.38;17.33;;;8.70;99.90;;;;;;5030201;28;20046;-69
2022/01/04 08:46:22;;;;;;;35.30;16.88;;;8.70;99.90;;;;;;5030343;28;20079;-71
2022/01/04 08:48:48;;;;;;;29.05;15.07;;;8.70;99.90;;;;;;5028878;28;20045;-70
2022/01/04 08:51:14;;;;;;;33.53;17.35;;;8.70;99.90;;;;;;5030231;28;20045;-70
2022/01/04 08:53:40;;;;;;;31.30;17.25;;;8.70;99.90;;;;;;5028845;28;20060;-70
2022/01/04 08:56:06;;;;;;;35.90;17.13;;;8.70;99.90;;;;;;5030199;28;20088;-71
2022/01/04 08:58:32;;;;;;;29.27;16.10;;;8.70;99.90;;;;;;5030517;28;20041;-70
2022/01/04 09:00:57;;;;;;;30.15;17.08;;;8.70;99.90;;;;;;5029638;28;20530;-70
2022/01/04 09:03:24;;;;;;;26.00;15.82;;;8.70;99.90;;;;;;5028735;28;20073;-70
2022/01/04 09:05:51;;;;;;;27.83;16.70;;;8.70;99.90;;;;;;5031228;28;20729;-70
2022/01/04 09:08:16;;;;;;;25.25;16.30;;;8.70;99.90;;;;;;5032743;28;20072;-72
2022/01/04 09:10:42;;;;;;;32.08;17.98;;;8.70;99.90;;;;;;5033953;28;20120;-72
2022/01/04 09:13:15;;;;;;;32.20;17.02;;;8.80;99.90;;;;;;5032248;28;20041;-72
2022/01/04 09:20:54;;;;;;;34.50;17.88;;;8.70;99.90;;;;;;5032746;28;20045;-73
2022/01/04 09:23:21;;;;;;;35.95;20.02;;;8.70;99.90;;;;;;5033705;28;20049;-73
2022/01/04 09:25:48;;;;;;;33.17;18.20;;;8.60;99.90;;;;;;5035476;28;20053;-72
2022/01/04 09:28:14;;;;;;;36.67;18.80;;;8.70;99.90;;;;;;5033611;28;20041;-74
2022/01/04 09:30:41;;;;;;;35.63;20.27;;;8.70;99.90;;;;;;5032982;28;20052;-73
2022/01/04 09:33:07;;;;;;;33.80;19.20;;;8.70;99.90;;;;;;5022219;28;20029;-72
2022/01/04 09:35:37;;;;;;;33.05;18.98;;;8.70;99.90;;;;;;5006933;28;20549;-71
2022/01/04 09:38:04;;;;;;;37.53;20.75;;;8.70;99.90;;;;;;5033291;28;20128;-71
2022/01/04 09:40:30;;;;;;;37.67;19.45;;;8.80;99.90;;;;;;5032170;28;20052;-71
2022/01/04 09:42:57;;;;;;;37.63;19.73;;;8.70;99.90;;;;;;5032186;28;20045;-70
2022/01/04 09:45:22;;;;;;;37.42;21.02;;;8.70;99.90;;;;;;5032750;28;20441;-70
2022/01/04 09:47:48;;;;;;;33.10;18.80;;;8.70;99.90;;;;;;5032980;28;20106;-70
2022/01/04 09:50:14;;;;;;;26.15;13.20;;;8.70;99.90;;;;;;5032546;28;20731;-70
2022/01/04 09:52:44;;;;;;;11.88;5.82;;;8.60;99.90;;;;;;5032995;28;20045;-70
2022/01/04 09:55:14;;;;;;;5.90;3.28;;;8.60;99.90;;;;;;5031380;28;20092;-69
2022/01/04 09:57:41;;;;;;;6.32;2.42;;;8.50;99.90;;;;;;5030692;28;20057;-71
2022/01/04 10:00:08;;;;;;;4.88;2.95;;;8.50;99.90;;;;;;5031202;28;20037;-72
2022/01/04 10:02:35;;;;;;;10.52;4.07;;;8.50;99.90;;;;;;5031207;28;20390;-73
2022/01/04 10:05:25;;;;;;;4.60;3.40;;;8.50;99.90;;;;;;5031343;28;20049;-73
2022/01/04 10:08:03;;;;;;;9.43;4.93;;;8.40;99.90;;;;;;5031827;28;20061;-73
2022/01/04 10:10:29;;;;;;;11.88;7.57;;;8.40;99.90;;;;;;5032935;28;20052;-73
2022/01/04 10:13:00;;;;;;;15.82;7.07;;;8.40;99.90;;;;;;5031403;28;20037;-72
2022/01/04 10:15:28;;;;;;;13.10;7.53;;;8.40;99.90;;;;;;5031538;28;20045;-73
2022/01/04 10:17:58;;;;;;;13.20;7.60;;;8.40;99.90;;;;;;5031979;28;20072;-70
2022/01/04 10:20:24;;;;;;;15.30;7.70;;;8.40;99.90;;;;;;5032855;28;20041;-71
2022/01/04 10:22:50;;;;;;;13.40;7.03;;;8.50;99.90;;;;;;5032471;28;20520;-71
2022/01/04 10:25:19;;;;;;;13.23;6.00;;;8.50;99.90;;;;;;5032615;28;20049;-70
2022/01/04 10:27:50;;;;;;;10.35;5.10;;;8.50;99.90;;;;;;5026312;28;20038;-71
2022/01/04 10:30:22;;;;;;;9.73;4.63;;;8.50;99.90;;;;;;5023027;28;20414;-71
2022/01/04 10:33:10;;;;;;;7.85;4.80;;;8.50;99.90;;;;;;5015071;28;20453;-70
2022/01/04 10:35:37;;;;;;;11.10;6.15;;;8.50;99.90;;;;;;5012559;28;20057;-70
2022/01/04 10:38:11;;;;;;;13.27;5.50;;;8.40;99.90;;;;;;4995069;28;20073;-70
2022/01/04 10:40:39;;;;;;;11.30;6.07;;;8.50;99.90;;;;;;5011453;28;20030;-71
2022/01/04 10:43:16;;;;;;;7.55;4.68;;;8.50;99.90;;;;;;5012135;28;20046;-70
2022/01/04 10:45:44;;;;;;;12.70;5.18;;;8.40;99.90;;;;;;5012574;28;20095;-70
2022/01/04 10:48:20;;;;;;;8.95;4.70;;;8.50;99.90;;;;;;5011952;28;20050;-74
2022/01/04 10:50:50;;;;;;;7.38;4.57;;;8.50;99.90;;;;;;5010952;28;20045;-70
2022/01/04 10:53:24;;;;;;;11.95;4.43;;;8.50;99.90;;;;;;5010708;28;20053;-69
2022/01/04 10:55:54;;;;;;;7.63;5.25;;;8.50;99.90;;;;;;5012384;28;20060;-71
2022/01/04 10:58:44;;;;;;;16.25;4.93;;;8.50;99.90;;;;;;5011017;28;20046;-74
2022/01/04 11:01:12;;;;;;;8.65;4.03;;;8.50;99.90;;;;;;5014089;28;20715;-72
2022/01/04 11:03:51;;;;;;;8.57;3.50;;;8.40;99.90;;;;;;5020957;28;20053;-72
2022/01/04 11:06:28;;;;;;;6.82;2.53;;;8.40;99.90;;;;;;5019630;28;20709;-72
2022/01/04 11:08:54;;;;;;;7.88;2.83;;;8.40;99.90;;;;;;5019429;28;20038;-72
2022/01/04 11:11:20;;;;;;;6.35;2.33;;;8.40;99.90;;;;;;5027855;28;20049;-74
2022/01/04 11:13:48;;;;;;;11.48;2.70;;;8.20;99.90;;;;;;5030110;28;20049;-73
2022/01/04 11:16:15;;;;;;;5.30;2.35;;;8.30;99.90;;;;;;5030311;28;20064;-73
2022/01/04 11:18:41;;;;;;;4.15;1.70;;;9.00;99.90;;;;;;5031848;28;20042;-73
2022/01/04 11:21:12;;;;;;;4.20;1.60;;;8.50;99.90;;;;;;5030469;28;20089;-72
2022/01/04 11:23:40;;;;;;;4.85;2.35;;;8.40;99.90;;;;;;5030033;28;20063;-72
2022/01/04 11:26:07;;;;;;;4.63;1.45;;;8.20;99.90;;;;;;5028500;28;20128;-76
2022/01/04 11:28:34;;;;;;;4.20;1.50;;;8.10;99.90;;;;;;5016329;28;20054;-72
2022/01/04 11:31:11;;;;;;;3.70;1.50;;;8.00;99.90;;;;;;5034182;28;20045;-74
2022/01/04 11:33:55;;;;;;;7.47;1.90;;;8.00;99.90;;;;;;5050762;28;20049;-72
2022/01/04 11:36:21;;;;;;;3.42;1.20;;;8.00;99.90;;;;;;5050905;28;20063;-73
2022/01/04 11:38:47;;;;;;;6.30;1.63;;;8.00;99.90;;;;;;5049700;28;20467;-72
2022/01/04 11:41:42;;;;;;;2.55;1.60;;;8.00;99.90;;;;;;5051112;28;20440;-71
2022/01/04 11:44:27;;;;;;;4.45;1.35;;;8.00;99.90;;;;;;5050971;28;20057;-72
2022/01/04 11:47:00;;;;;;;5.03;1.40;;;8.00;99.90;;;;;;5051176;28;20048;-73
2022/01/04 11:49:26;;;;;;;3.42;1.33;;;8.00;99.90;;;;;;5049184;28;20048;-73
2022/01/04 11:51:51;;;;;;;2.20;1.60;;;7.90;99.90;;;;;;5049756;28;20041;-73
2022/01/04 11:54:27;;;;;;;5.45;1.42;;;7.90;99.90;;;;;;5049814;28;20044;-73
2022/01/04 11:57:01;;;;;;;3.55;1.48;;;7.90;99.90;;;;;;5049667;28;20063;-73
2022/01/04 11:59:35;;;;;;;4.40;2.22;;;7.90;99.90;;;;;;5032847;28;20041;-74
2022/01/04 12:02:35;;;;;;;6.10;2.08;;;7.90;99.90;;;;;;5049154;28;20053;-74
2022/01/04 12:05:00;;;;;;;5.82;2.15;;;7.90;99.90;;;;;;5032786;28;20530;-74
2022/01/04 12:07:38;;;;;;;2.03;1.20;;;7.80;99.90;;;;;;5049731;28;20151;-73
2022/01/04 12:10:19;;;;;;;2.30;1.48;;;7.70;99.90;;;;;;5049506;28;20064;-73
2022/01/04 12:12:54;;;;;;;1.25;1.15;;;7.60;99.90;;;;;;5050465;28;20041;-73
2022/01/04 12:15:35;;;;;;;3.45;1.90;;;7.70;99.90;;;;;;5049195;28;20103;-73
2022/01/04 12:18:22;;;;;;;4.05;1.63;;;7.60;99.90;;;;;;5049349;28;20715;-73
2022/01/04 12:20:52;;;;;;;4.20;1.63;;;7.60;99.90;;;;;;5049306;28;20036;-73
2022/01/04 12:23:26;;;;;;;2.13;1.75;;;7.50;99.90;;;;;;5049141;28;20037;-73
2022/01/04 12:26:16;;;;;;;2.05;1.55;;;7.50;99.90;;;;;;5049277;28;20044;-73
2022/01/04 12:28:43;;;;;;;3.72;1.35;;;7.50;99.90;;;;;;5032973;28;20045;-74
2022/01/04 12:31:18;;;;;;;3.10;1.13;;;7.50;99.90;;;;;;5055755;28;20490;-71
2022/01/04 12:33:45;;;;;;;4.93;1.42;;;7.50;99.90;;;;;;5055616;28;20057;-72
2022/01/04 12:36:23;;;;;;;2.53;1.40;;;7.40;99.90;;;;;;5049112;28;20107;-71
2022/01/04 12:38:50;;;;;;;2.65;1.13;;;7.30;99.90;;;;;;5049432;28;20037;-71
2022/01/04 12:41:16;;;;;;;3.28;1.40;;;7.30;99.90;;;;;;5052215;28;20041;-72
2022/01/04 12:43:46;;;;;;;3.42;1.50;;;7.40;99.90;;;;;;5036418;28;20041;-72
2022/01/04 12:46:12;;;;;;;1.20;1.10;;;7.30;99.90;;;;;;5054433;28;20124;-72
2022/01/04 12:48:49;;;;;;;1.55;1.10;;;7.30;99.90;;;;;;5053810;28;20040;-72
2022/01/04 12:51:29;;;;;;;1.85;1.10;;;7.30;99.90;;;;;;5053045;28;20095;-72
2022/01/04 12:53:57;;;;;;;3.40;0.90;;;7.20;99.90;;;;;;5054042;28;20223;-73
2022/01/04 12:56:27;;;;;;;6.70;1.27;;;7.10;99.90;;;;;;5036527;28;20416;-74
2022/01/04 12:58:54;;;;;;;5.03;1.05;;;7.00;99.90;;;;;;5052752;28;20048;-72
2022/01/04 13:01:28;;;;;;;3.85;0.90;;;7.00;99.90;;;;;;5052679;28;20072;-71